Yorktown Express — WDD6127 — position and weather

sailwx.info

Track history (hours):
 
Tides and Currents Weather Stations Pressure Air Temp Water Temp Dewpoint Dewpoint Depression Visibility Wind Speed Wind Dir Waves Ship Positions

Yorktown Express

Owner: Marine Transport Management, Inc., Jacksonville, FL. More information available from US FCC via Universal Licensing System and Coast Guard Vessel Documentation Center.

Last reported at 2015-Jul-01 13:06 UTC. Time now 2015-Jul-02 21:23 UTC.
Position N 29°20' W 094°41'.

Type: Ship. MMSI: 367168650.

Date/timePositionNaut miles runAvg speedWind from/ knotsBaromVisibWave heightAir tempDewpointWater temp
2015-Jul-01 13:06N 29°20' W 094°41'611.3
2015-Jul-01 12:34N 29°22' W 094°48'1212.1
2015-Jul-01 11:33N 29°33' W 094°54'10 9.6
2015-Jul-01 10:33N 29°41' W 094°60'0 0.4
2015-Jul-01 09:32N 29°41' W 094°60'0 0.0
2015-Jul-01 08:32N 29°41' W 094°60'0 0.0
2015-Jul-01 07:32N 29°41' W 094°60'0 0.0
2015-Jul-01 06:32N 29°41' W 094°60'0 0.0
2015-Jul-01 05:32N 29°41' W 094°60'0 0.0
2015-Jul-01 04:32N 29°41' W 094°60'0 0.0
2015-Jul-01 03:32N 29°41' W 094°60'0 0.0
2015-Jul-01 02:32N 29°41' W 094°60'0 0.0
2015-Jul-01 01:32N 29°41' W 094°60'0 0.0
2015-Jul-01 00:32N 29°41' W 094°60'0 0.0
2015-Jun-30 23:33N 29°41' W 094°60'0 0.0
2015-Jun-30 22:33N 29°41' W 094°60'0 0.0
2015-Jun-30 21:33N 29°41' W 094°60'0 0.0
2015-Jun-30 20:33N 29°41' W 094°60'0 0.0
2015-Jun-30 19:33N 29°41' W 094°60'0 0.0
2015-Jun-30 18:33N 29°41' W 094°60'0 0.0
2015-Jun-30 17:33N 29°41' W 094°60'0 0.0
2015-Jun-30 16:33N 29°41' W 094°60'0 0.0
2015-Jun-30 15:33N 29°41' W 094°60'0 0.0
2015-Jun-30 14:33N 29°41' W 094°60'0 0.0
2015-Jun-30 13:33N 29°41' W 094°60'0 0.0
2015-Jun-30 12:33N 29°41' W 094°60'0 0.0
2015-Jun-30 11:33N 29°41' W 094°60'0 0.0
2015-Jun-30 10:33N 29°41' W 094°60'0 0.0
2015-Jun-30 09:33N 29°41' W 094°60'0 0.0
2015-Jun-30 08:33N 29°41' W 094°60'0 0.0
2015-Jun-30 07:33N 29°41' W 094°60'0 0.0
2015-Jun-30 06:33N 29°41' W 094°60'0 0.0
2015-Jun-30 05:33N 29°41' W 094°60'1 1.1
2015-Jun-30 04:33N 29°40' W 094°59'1111.4
2015-Jun-30 03:33N 29°30' W 094°53'1111.1
2015-Jun-30 02:33N 29°21' W 094°46'82117.0
2015-Jun-28 02:09N 25°29' W 079°60'1016.5
2015-Jun-28 01:33N 25°39' W 079°59'1616.2
2015-Jun-28 00:33N 25°55' W 080°02'1211.5
2015-Jun-27 23:33N 26°06' W 080°06'2 1.5
2015-Jun-27 22:32N 26°04' W 080°07'0 0.0
2015-Jun-27 21:32N 26°04' W 080°07'0 0.0
2015-Jun-27 20:23N 26°04' W 080°07'0 0.0
2015-Jun-27 19:26N 26°04' W 080°07'0 0.0
2015-Jun-27 18:26N 26°04' W 080°07'0 0.0
2015-Jun-27 17:26N 26°04' W 080°07'0 0.0
2015-Jun-27 16:29N 26°04' W 080°07'0 0.0
2015-Jun-27 15:29N 26°04' W 080°07'0 0.0
2015-Jun-27 14:29N 26°04' W 080°07'0 0.0
2015-Jun-27 13:32N 26°04' W 080°07'0 0.0
2015-Jun-27 12:32N 26°04' W 080°07'4 4.1
2015-Jun-27 11:33N 26°06' W 080°03'8 7.7
2015-Jun-27 10:33N 26°12' W 079°57'1515.2
2015-Jun-27 09:33N 26°27' W 079°56'1515.5
2015-Jun-27 08:33N 26°42' W 079°56'1514.9
2015-Jun-27 07:33N 26°57' W 079°57'27017.7
2015-Jun-26 16:19N 31°27' W 079°57'3419.3
2015-Jun-26 14:33N 32°00' W 079°48'230 7.1
2015-Jun-25 06:00N 33°30' W 075°36'11218.7 320 / 351021.2 0.5 3.022.022.032.0
2015-Jun-25 00:00N 33°54' W 073°24'20717.2 230 / 261019.6 5.4 0.529.026.230.0
2015-Jun-24 12:00N 34°54' W 069°24'22819.0 240 / 251020.0 5.4 0.529.024.828.0
2015-Jun-24 00:00N 35°54' W 064°54'24720.6 250 / 121021.0 5.4 26.624.328.0
2015-Jun-23 12:00N 37°06' W 060°00'10517.4 260 / 141017.5 5.4 27.022.626.0
2015-Jun-23 06:00N 37°36' W 057°54'11819.6 260 / 311014.710.8 4.025.023.526.0
2015-Jun-23 00:00N 38°06' W 055°30'9916.5 260 / 281014.7 5.4 0.525.022.826.0
2015-Jun-22 18:00N 38°36' W 053°30'12520.9 240 / 241015.7 5.4 3.025.022.026.0
2015-Jun-22 12:00N 39°06' W 050°54'11318.8 220 / 171028.1 5.4 25.521.524.0
2015-Jun-22 06:00N 39°42' W 048°36'12220.4 120 / 101021.210.8 1.020.018.424.0
2015-Jun-22 00:00N 40°24' W 046°06'11018.3 250 / 101024.6 5.4 0.518.010.622.0
2015-Jun-21 18:00N 41°18' W 044°00'   330 / 141021.210.8 0.520.510.524.0
Track history (hours):
 
Tides and Currents Weather Stations Pressure Air Temp Water Temp Dewpoint Dewpoint Depression Visibility Wind Speed Wind Dir Waves Ship Positions

Yorktown Express

Owner: Marine Transport Management, Inc., Jacksonville, FL. More information available from US FCC via Universal Licensing System and Coast Guard Vessel Documentation Center.

Last reported at 2015-Jul-01 13:06 UTC. Time now 2015-Jul-02 21:23 UTC.
Position N 29°20' W 094°41'.

Type: Ship. MMSI: 367168650.

Date/timePositionNaut miles runAvg speedWind from/ knotsBaromVisibWave heightAir tempDewpointWater temp
2015-Jul-01 13:06N 29°20' W 094°41'611.3
2015-Jul-01 12:34N 29°22' W 094°48'1212.1
2015-Jul-01 11:33N 29°33' W 094°54'10 9.6
2015-Jul-01 10:33N 29°41' W 094°60'0 0.4
2015-Jul-01 09:32N 29°41' W 094°60'0 0.0
2015-Jul-01 08:32N 29°41' W 094°60'0 0.0
2015-Jul-01 07:32N 29°41' W 094°60'0 0.0
2015-Jul-01 06:32N 29°41' W 094°60'0 0.0
2015-Jul-01 05:32N 29°41' W 094°60'0 0.0
2015-Jul-01 04:32N 29°41' W 094°60'0 0.0
2015-Jul-01 03:32N 29°41' W 094°60'0 0.0
2015-Jul-01 02:32N 29°41' W 094°60'0 0.0
2015-Jul-01 01:32N 29°41' W 094°60'0 0.0
2015-Jul-01 00:32N 29°41' W 094°60'0 0.0
2015-Jun-30 23:33N 29°41' W 094°60'0 0.0
2015-Jun-30 22:33N 29°41' W 094°60'0 0.0
2015-Jun-30 21:33N 29°41' W 094°60'0 0.0
2015-Jun-30 20:33N 29°41' W 094°60'0 0.0
2015-Jun-30 19:33N 29°41' W 094°60'0 0.0
2015-Jun-30 18:33N 29°41' W 094°60'0 0.0
2015-Jun-30 17:33N 29°41' W 094°60'0 0.0
2015-Jun-30 16:33N 29°41' W 094°60'0 0.0
2015-Jun-30 15:33N 29°41' W 094°60'0 0.0
2015-Jun-30 14:33N 29°41' W 094°60'0 0.0
2015-Jun-30 13:33N 29°41' W 094°60'0 0.0
2015-Jun-30 12:33N 29°41' W 094°60'0 0.0
2015-Jun-30 11:33N 29°41' W 094°60'0 0.0
2015-Jun-30 10:33N 29°41' W 094°60'0 0.0
2015-Jun-30 09:33N 29°41' W 094°60'0 0.0
2015-Jun-30 08:33N 29°41' W 094°60'0 0.0
2015-Jun-30 07:33N 29°41' W 094°60'0 0.0
2015-Jun-30 06:33N 29°41' W 094°60'0 0.0
2015-Jun-30 05:33N 29°41' W 094°60'1 1.1
2015-Jun-30 04:33N 29°40' W 094°59'1111.4
2015-Jun-30 03:33N 29°30' W 094°53'1111.1
2015-Jun-30 02:33N 29°21' W 094°46'82117.0
2015-Jun-28 02:09N 25°29' W 079°60'1016.5
2015-Jun-28 01:33N 25°39' W 079°59'1616.2
2015-Jun-28 00:33N 25°55' W 080°02'1211.5
2015-Jun-27 23:33N 26°06' W 080°06'2 1.5
2015-Jun-27 22:32N 26°04' W 080°07'0 0.0
2015-Jun-27 21:32N 26°04' W 080°07'0 0.0
2015-Jun-27 20:23N 26°04' W 080°07'0 0.0
2015-Jun-27 19:26N 26°04' W 080°07'0 0.0
2015-Jun-27 18:26N 26°04' W 080°07'0 0.0
2015-Jun-27 17:26N 26°04' W 080°07'0 0.0
2015-Jun-27 16:29N 26°04' W 080°07'0 0.0
2015-Jun-27 15:29N 26°04' W 080°07'0 0.0
2015-Jun-27 14:29N 26°04' W 080°07'0 0.0
2015-Jun-27 13:32N 26°04' W 080°07'0 0.0
2015-Jun-27 12:32N 26°04' W 080°07'4 4.1
2015-Jun-27 11:33N 26°06' W 080°03'8 7.7
2015-Jun-27 10:33N 26°12' W 079°57'1515.2
2015-Jun-27 09:33N 26°27' W 079°56'1515.5
2015-Jun-27 08:33N 26°42' W 079°56'1514.9
2015-Jun-27 07:33N 26°57' W 079°57'27017.7
2015-Jun-26 16:19N 31°27' W 079°57'3419.3
2015-Jun-26 14:33N 32°00' W 079°48'230 7.1
2015-Jun-25 06:00N 33°30' W 075°36'11218.7 320 / 351021.2 0.5 3.022.022.032.0
2015-Jun-25 00:00N 33°54' W 073°24'20717.2 230 / 261019.6 5.4 0.529.026.230.0
2015-Jun-24 12:00N 34°54' W 069°24'22819.0 240 / 251020.0 5.4 0.529.024.828.0
2015-Jun-24 00:00N 35°54' W 064°54'24720.6 250 / 121021.0 5.4 26.624.328.0
2015-Jun-23 12:00N 37°06' W 060°00'10517.4 260 / 141017.5 5.4 27.022.626.0
2015-Jun-23 06:00N 37°36' W 057°54'11819.6 260 / 311014.710.8 4.025.023.526.0
2015-Jun-23 00:00N 38°06' W 055°30'9916.5 260 / 281014.7 5.4 0.525.022.826.0
2015-Jun-22 18:00N 38°36' W 053°30'12520.9 240 / 241015.7 5.4 3.025.022.026.0
2015-Jun-22 12:00N 39°06' W 050°54'11318.8 220 / 171028.1 5.4 25.521.524.0
2015-Jun-22 06:00N 39°42' W 048°36'12220.4 120 / 101021.210.8 1.020.018.424.0
2015-Jun-22 00:00N 40°24' W 046°06'11018.3 250 / 101024.6 5.4 0.518.010.622.0
2015-Jun-21 18:00N 41°18' W 044°00'   330 / 141021.210.8 0.520.510.524.0

Dump ship's entire track history